createdAt,value
2023-05-15T00:05:25.092Z,27.00
2023-05-15T00:08:11.504Z,23.85
2023-05-15T00:11:01.540Z,23.33
2023-05-15T00:17:09.855Z,15.68
2023-05-15T00:23:10.185Z,25.45
2023-05-15T00:29:15.091Z,22.77
2023-05-15T00:35:24.482Z,22.73
2023-05-15T00:38:18.890Z,17.95
2023-05-15T00:41:12.608Z,17.98
2023-05-15T00:44:04.876Z,16.15
2023-05-15T00:46:58.734Z,21.13
2023-05-15T00:49:52.042Z,25.02
2023-05-15T00:52:46.726Z,27.70
2023-05-15T00:55:41.651Z,27.23
2023-05-15T00:58:34.861Z,24.02
2023-05-15T01:01:28.859Z,27.17
2023-05-15T01:04:21.705Z,26.73
2023-05-15T01:07:14.599Z,25.23
2023-05-15T01:10:08.068Z,24.70
2023-05-15T01:13:03.506Z,22.23
2023-05-15T01:15:56.270Z,20.48
2023-05-15T01:18:48.920Z,21.52
2023-05-15T01:22:21.292Z,17.23
2023-05-15T01:25:39.169Z,25.80
2023-05-15T01:28:39.181Z,23.48
2023-05-15T01:31:33.044Z,25.85
2023-05-15T01:34:40.627Z,22.42
2023-05-15T01:37:34.274Z,20.83
2023-05-15T01:40:27.719Z,21.50
2023-05-15T01:43:23.890Z,18.45
2023-05-15T01:46:20.947Z,15.88
2023-05-15T01:52:31.794Z,21.00
2023-05-15T01:58:38.335Z,15.35
2023-05-15T02:04:44.497Z,22.77
2023-05-15T02:07:39.094Z,23.38
2023-05-15T02:10:40.498Z,18.58
2023-05-15T02:13:33.010Z,13.25
2023-05-15T02:16:26.091Z,21.23
2023-05-15T02:19:20.457Z,26.80
2023-05-15T02:22:13.647Z,26.27
2023-05-15T02:25:06.419Z,18.02
2023-05-15T02:28:01.440Z,27.30
2023-05-15T02:30:57.091Z,20.80
2023-05-15T02:33:56.483Z,22.38
2023-05-15T02:36:53.434Z,29.38
2023-05-15T02:39:46.903Z,28.52
2023-05-15T02:42:40.599Z,18.27
2023-05-15T02:45:33.406Z,24.65
2023-05-15T02:48:26.419Z,26.98
2023-05-15T02:51:19.056Z,21.67
2023-05-15T02:54:13.401Z,27.35
2023-05-15T03:00:18.447Z,21.17
2023-05-15T03:03:10.997Z,18.92
2023-05-15T03:06:04.066Z,25.92
2023-05-15T03:08:56.492Z,30.60
2023-05-15T03:11:50.117Z,37.97
2023-05-15T03:14:42.848Z,31.80
2023-05-15T03:21:05.052Z,25.80
2023-05-15T03:23:57.677Z,23.98
2023-05-15T03:26:52.078Z,28.33
2023-05-15T03:29:44.712Z,27.75
2023-05-15T03:35:51.939Z,32.80
2023-05-15T03:42:02.472Z,40.60
2023-05-15T03:44:55.996Z,35.22
2023-05-15T03:47:49.241Z,34.85
2023-05-15T03:50:41.817Z,37.97
2023-05-15T03:53:34.610Z,37.28
2023-05-15T03:56:27.067Z,37.08
2023-05-15T03:59:21.335Z,37.35
2023-05-15T04:02:13.757Z,35.63
2023-05-15T04:08:19.190Z,38.45
2023-05-15T04:11:12.473Z,38.67
2023-05-15T04:17:16.937Z,31.92
2023-05-15T04:23:26.520Z,34.22
2023-05-15T04:29:36.107Z,43.80
2023-05-15T04:35:47.986Z,41.78
2023-05-15T04:38:41.117Z,41.92
2023-05-15T04:41:34.049Z,38.50
2023-05-15T04:44:26.456Z,36.75
2023-05-15T04:47:19.920Z,41.75
2023-05-15T04:50:38.128Z,34.92
2023-05-15T04:53:31.803Z,34.75
2023-05-15T04:57:02.049Z,37.13
2023-05-15T04:59:54.863Z,39.80
2023-05-15T05:03:03.026Z,31.23
2023-05-15T05:05:55.025Z,37.63
2023-05-15T05:08:48.773Z,42.00
2023-05-15T05:11:43.435Z,36.50
2023-05-15T05:14:35.960Z,35.70
2023-05-15T05:17:29.278Z,33.75
2023-05-15T05:20:22.203Z,13.93
2023-05-15T05:23:15.949Z,7.32
2023-05-15T05:26:10.200Z,5.00
2023-05-15T05:29:02.763Z,3.95
2023-05-15T05:31:56.156Z,2.70
2023-05-15T05:34:48.650Z,4.75
2023-05-15T05:40:45.625Z,8.45
2023-05-15T05:43:39.399Z,9.88
2023-05-15T05:46:32.090Z,7.25
2023-05-15T05:52:53.728Z,13.75
2023-05-15T05:56:24.103Z,9.45
2023-05-15T05:59:18.143Z,6.75
2023-05-15T06:02:11.186Z,7.60
2023-05-15T06:05:04.404Z,7.60
2023-05-15T06:07:57.823Z,8.82
2023-05-15T06:10:50.750Z,14.38
2023-05-15T06:14:09.440Z,8.13
2023-05-15T06:17:03.376Z,7.95
2023-05-15T06:20:13.292Z,6.30
2023-05-15T06:23:02.626Z,7.05
2023-05-15T06:25:54.776Z,10.50
2023-05-15T06:28:47.722Z,10.07
2023-05-15T06:31:40.948Z,7.20
2023-05-15T06:38:04.055Z,9.02
2023-05-15T06:40:57.132Z,8.03
2023-05-15T06:43:50.051Z,9.90
2023-05-15T06:46:36.078Z,8.38
2023-05-15T06:49:29.354Z,8.60
2023-05-15T06:52:21.914Z,8.68
2023-05-15T06:58:29.116Z,13.10
2023-05-15T07:01:21.985Z,9.38
2023-05-15T07:07:31.136Z,6.43
2023-05-15T07:13:41.526Z,8.70
2023-05-15T07:16:33.679Z,6.63
2023-05-15T07:22:51.915Z,7.15
2023-05-15T07:25:47.675Z,7.03
2023-05-15T07:28:41.083Z,6.93
2023-05-15T07:31:34.061Z,6.25
2023-05-15T07:34:34.294Z,6.78
2023-05-15T07:37:26.898Z,6.03
2023-05-15T07:40:20.072Z,6.95
2023-05-15T07:43:12.755Z,6.25
2023-05-15T07:46:07.224Z,6.88
2023-05-15T07:48:59.814Z,6.38
2023-05-15T07:51:53.008Z,10.35
2023-05-15T07:54:45.758Z,7.00
2023-05-15T07:57:39.730Z,6.45
2023-05-15T08:00:32.807Z,6.35
2023-05-15T08:03:27.486Z,9.85
2023-05-15T08:09:38.602Z,5.80
2023-05-15T08:12:30.707Z,5.05
2023-05-15T08:15:23.170Z,6.18
2023-05-15T08:18:15.948Z,9.55
2023-05-15T08:21:11.092Z,6.85
2023-05-15T08:26:57.132Z,6.05
2023-05-15T08:29:50.067Z,6.13
2023-05-15T08:32:43.967Z,5.18
2023-05-15T08:35:36.835Z,8.93
2023-05-15T08:38:31.323Z,5.95
2023-05-15T08:41:39.887Z,7.57
2023-05-15T08:44:34.254Z,6.22
2023-05-15T08:47:28.846Z,7.93
2023-05-15T08:50:22.426Z,6.90
2023-05-15T08:53:15.576Z,12.15
2023-05-15T08:59:34.260Z,4.90
2023-05-15T09:02:27.068Z,9.13
2023-05-15T09:05:19.777Z,8.80
2023-05-15T09:08:15.873Z,5.28
2023-05-15T09:11:09.066Z,6.85
2023-05-15T09:17:24.401Z,10.88
2023-05-15T09:20:27.767Z,5.60
2023-05-15T09:23:25.842Z,7.13
2023-05-15T09:26:18.874Z,12.07
2023-05-15T09:29:12.107Z,9.45
2023-05-15T09:35:34.211Z,10.15
2023-05-15T09:38:26.772Z,9.75
2023-05-15T09:41:25.686Z,9.52
2023-05-15T09:44:22.127Z,7.55
2023-05-15T09:47:16.678Z,10.13
2023-05-15T09:50:10.690Z,11.57
2023-05-15T09:53:04.659Z,10.20
2023-05-15T09:55:56.936Z,13.32
2023-05-15T09:59:22.260Z,10.25
2023-05-15T10:02:16.262Z,12.70
2023-05-15T10:05:09.475Z,15.65
2023-05-15T10:08:04.210Z,17.83
2023-05-15T10:11:00.602Z,18.47
2023-05-15T10:13:53.035Z,14.35
2023-05-15T10:16:46.480Z,16.83
2023-05-15T10:19:50.416Z,12.50
2023-05-15T10:22:52.053Z,16.90
2023-05-15T10:25:51.851Z,16.50
2023-05-15T10:28:45.946Z,14.52
2023-05-15T10:31:32.166Z,17.17
2023-05-15T10:34:47.225Z,15.13
2023-05-15T10:37:34.389Z,14.63
2023-05-15T10:40:21.058Z,12.10
2023-05-15T10:46:20.779Z,10.23
2023-05-15T10:52:23.314Z,7.20
2023-05-15T10:55:10.553Z,6.10
2023-05-15T10:57:56.586Z,6.70
2023-05-15T11:00:46.474Z,7.45
2023-05-15T11:03:48.868Z,6.97
2023-05-15T11:06:36.799Z,8.05
2023-05-15T11:09:40.073Z,10.57
2023-05-15T11:12:57.288Z,8.05
2023-05-15T11:15:50.043Z,16.05
2023-05-15T11:18:45.793Z,8.27
2023-05-15T11:21:46.205Z,8.35
2023-05-15T11:24:49.448Z,7.20
2023-05-15T11:27:43.107Z,11.43
2023-05-15T11:30:37.904Z,7.95
2023-05-15T11:36:47.004Z,27.10
2023-05-15T11:39:40.076Z,35.03
2023-05-15T11:42:33.312Z,39.22
2023-05-15T11:45:26.573Z,47.20
2023-05-15T11:48:19.108Z,53.25
2023-05-15T11:54:33.327Z,30.20
2023-05-15T11:57:26.238Z,24.35
2023-05-15T12:00:20.586Z,21.15
2023-05-15T12:03:15.989Z,15.45
2023-05-15T12:06:11.274Z,29.48
2023-05-15T12:09:04.789Z,25.90
2023-05-15T12:11:59.497Z,22.52
2023-05-15T12:14:52.016Z,19.92
2023-05-15T12:17:46.158Z,17.98
2023-05-15T12:24:07.542Z,16.02
2023-05-15T12:30:39.011Z,21.73
2023-05-15T12:33:49.319Z,19.67
2023-05-15T12:36:42.516Z,25.17
2023-05-15T12:43:25.123Z,22.52
2023-05-15T12:46:44.496Z,20.73
2023-05-15T12:49:36.964Z,23.33
2023-05-15T12:53:07.497Z,18.10
2023-05-15T12:55:59.938Z,12.07
2023-05-15T12:59:10.217Z,17.35
2023-05-15T13:02:01.344Z,12.07
2023-05-15T13:08:17.199Z,11.52
2023-05-15T13:11:12.758Z,9.18
2023-05-15T13:14:10.759Z,10.23
2023-05-15T13:17:04.642Z,10.88
2023-05-15T13:19:56.932Z,13.15
2023-05-15T13:22:49.800Z,14.15
2023-05-15T13:25:43.100Z,8.65
2023-05-15T13:28:36.078Z,10.05
2023-05-15T13:34:41.154Z,9.90
2023-05-15T13:37:33.932Z,10.45
2023-05-15T13:40:27.279Z,10.25
2023-05-15T13:43:19.867Z,9.18
2023-05-15T13:46:13.054Z,8.63
2023-05-15T13:49:05.832Z,9.20
2023-05-15T13:55:37.578Z,7.85
2023-05-15T13:58:47.233Z,11.20
2023-05-15T14:01:37.043Z,11.93
2023-05-15T14:04:30.101Z,8.43
2023-05-15T14:07:23.672Z,9.43
2023-05-15T14:10:15.921Z,9.20
2023-05-15T14:13:10.326Z,8.77
2023-05-15T14:16:03.053Z,10.48
2023-05-15T14:18:56.205Z,11.30
2023-05-15T14:21:49.674Z,8.35
2023-05-15T14:24:42.263Z,13.00
2023-05-15T14:27:35.242Z,11.68
2023-05-15T14:30:29.470Z,14.02
2023-05-15T14:36:35.499Z,11.07
2023-05-15T14:39:28.020Z,24.33
2023-05-15T14:42:22.017Z,9.00
2023-05-15T14:48:29.860Z,14.73
2023-05-15T14:57:32.124Z,13.15
2023-05-15T15:03:47.269Z,15.60
2023-05-15T15:06:41.503Z,14.15
2023-05-15T15:09:33.897Z,11.88
2023-05-15T15:12:27.448Z,10.60
2023-05-15T15:15:20.076Z,10.27
2023-05-15T15:18:12.838Z,10.30
2023-05-15T15:21:08.007Z,10.65
2023-05-15T15:24:28.360Z,7.03
2023-05-15T15:27:20.956Z,8.55
2023-05-15T15:30:42.258Z,9.90
2023-05-15T15:33:34.870Z,9.23
2023-05-15T15:36:29.371Z,18.25
2023-05-15T15:42:35.542Z,12.23
2023-05-15T15:45:27.856Z,10.45
2023-05-15T15:48:21.225Z,7.97
2023-05-15T15:51:14.164Z,10.35
2023-05-15T15:54:08.463Z,12.13
2023-05-15T15:57:00.994Z,8.98
2023-05-15T15:59:54.105Z,13.95
2023-05-15T16:03:12.030Z,11.18
2023-05-15T16:06:05.501Z,10.13
2023-05-15T16:08:58.871Z,12.20
2023-05-15T16:18:06.145Z,11.45
2023-05-15T16:20:59.128Z,13.27
2023-05-15T16:23:51.581Z,11.48
2023-05-15T16:26:43.800Z,13.43
2023-05-15T16:29:35.893Z,9.05
2023-05-15T16:32:30.313Z,10.95
2023-05-15T16:35:22.959Z,12.68
2023-05-15T16:38:17.896Z,14.82
2023-05-15T16:41:48.204Z,11.13
2023-05-15T16:44:40.904Z,12.88
2023-05-15T16:47:51.415Z,15.10
2023-05-15T16:50:42.441Z,9.45
2023-05-15T16:53:35.272Z,11.82
2023-05-15T16:56:27.990Z,9.32
2023-05-15T16:59:30.798Z,10.48
2023-05-15T17:02:23.242Z,11.18
2023-05-15T17:08:34.564Z,13.32
2023-05-15T17:11:26.896Z,12.23
2023-05-15T17:14:13.949Z,11.05
2023-05-15T17:17:07.298Z,13.18
2023-05-15T17:20:02.453Z,12.25
2023-05-15T17:22:56.100Z,9.15
2023-05-15T17:25:50.297Z,12.90
2023-05-15T17:28:42.637Z,11.40
2023-05-15T17:31:35.690Z,7.53
2023-05-15T17:34:27.813Z,9.75
2023-05-15T17:46:37.377Z,10.18
2023-05-15T17:49:29.869Z,7.45
2023-05-15T17:52:23.095Z,9.50
2023-05-15T17:55:15.861Z,9.50
2023-05-15T17:58:09.253Z,11.43
2023-05-15T18:01:03.881Z,9.57
2023-05-15T18:03:57.309Z,10.45
2023-05-15T18:06:51.912Z,8.70
2023-05-15T18:09:45.190Z,11.18
2023-05-15T18:12:37.919Z,12.38
2023-05-15T18:15:31.902Z,15.25
2023-05-15T18:18:30.484Z,10.52
2023-05-15T18:21:22.853Z,9.85
2023-05-15T18:24:15.991Z,11.52
2023-05-15T18:27:10.439Z,9.90
2023-05-15T18:30:03.429Z,13.65
2023-05-15T18:32:55.870Z,11.48
2023-05-15T18:38:52.661Z,11.60
2023-05-15T18:41:44.868Z,11.13
2023-05-15T18:44:38.158Z,16.10
2023-05-15T18:47:40.698Z,10.40
2023-05-15T18:50:32.963Z,8.93
2023-05-15T18:53:26.390Z,8.35
2023-05-15T18:56:21.452Z,11.20
2023-05-15T18:59:13.927Z,6.70
2023-05-15T19:02:07.560Z,5.88
2023-05-15T19:04:59.911Z,6.03
2023-05-15T19:07:53.028Z,11.77
2023-05-15T19:10:48.733Z,3.40
2023-05-15T19:13:49.651Z,6.07
2023-05-15T19:16:42.335Z,6.03
2023-05-15T19:19:34.949Z,11.85
2023-05-15T19:22:28.003Z,5.90
2023-05-15T19:25:20.958Z,7.75
2023-05-15T19:28:14.797Z,6.15
2023-05-15T19:31:14.098Z,13.48
2023-05-15T19:34:09.335Z,14.15
2023-05-15T19:37:02.153Z,22.45
2023-05-15T19:39:54.911Z,26.17
2023-05-15T19:42:47.987Z,23.20
2023-05-15T19:45:42.008Z,37.10
2023-05-15T19:48:36.392Z,30.27
2023-05-15T19:52:07.247Z,36.15
2023-05-15T19:54:59.961Z,41.67
2023-05-15T19:58:30.222Z,41.50
2023-05-15T20:01:23.379Z,46.75
2023-05-15T20:04:19.040Z,49.08
2023-05-15T20:07:12.791Z,46.60
2023-05-15T20:13:26.994Z,47.00
2023-05-15T20:19:33.239Z,46.63
2023-05-15T20:22:25.942Z,49.00
2023-05-15T20:25:19.335Z,52.60
2023-05-15T20:31:28.351Z,51.83
2023-05-15T20:34:21.738Z,36.72
2023-05-15T20:37:16.182Z,39.45
2023-05-15T20:40:11.078Z,34.63
2023-05-15T20:43:08.398Z,26.63
2023-05-15T20:46:00.864Z,28.23
2023-05-15T20:52:41.238Z,31.15
2023-05-15T20:55:51.499Z,26.63
2023-05-15T20:58:41.547Z,24.95
2023-05-15T21:01:34.001Z,23.30
2023-05-15T21:04:27.049Z,23.83
2023-05-15T21:07:20.174Z,23.00
2023-05-15T21:13:26.690Z,26.75
2023-05-15T21:19:31.300Z,19.55
2023-05-15T21:22:23.934Z,20.15
2023-05-15T21:25:19.013Z,21.25
2023-05-15T21:28:11.821Z,17.58
2023-05-15T21:31:09.075Z,19.50
2023-05-15T21:34:02.034Z,20.02
2023-05-15T21:36:55.952Z,21.08
2023-05-15T21:39:49.018Z,21.65
2023-05-15T21:42:41.992Z,17.48
2023-05-15T21:45:35.397Z,21.52
2023-05-15T21:51:42.690Z,16.10
2023-05-15T21:54:35.102Z,18.65
2023-05-15T21:57:28.677Z,17.67
2023-05-15T22:00:21.335Z,18.40
2023-05-15T22:03:14.394Z,16.52
2023-05-15T22:09:21.038Z,24.95
2023-05-15T22:12:14.009Z,19.52
2023-05-15T22:15:08.547Z,21.10
2023-05-15T22:21:47.059Z,16.58
2023-05-15T22:24:41.773Z,14.45
2023-05-15T22:27:34.094Z,17.10
2023-05-15T22:30:27.564Z,18.42
2023-05-15T22:33:23.962Z,17.85
2023-05-15T22:36:17.123Z,17.80
2023-05-15T22:39:10.182Z,16.85
2023-05-15T22:42:04.565Z,18.88
2023-05-15T22:45:00.903Z,22.75
2023-05-15T22:47:54.230Z,17.05
2023-05-15T22:50:46.852Z,16.70
2023-05-15T22:53:39.148Z,18.40
2023-05-15T22:56:32.174Z,18.70
2023-05-15T22:59:26.319Z,15.73
2023-05-15T23:05:54.821Z,13.00
2023-05-15T23:08:47.802Z,11.38
2023-05-15T23:11:40.053Z,11.82
2023-05-15T23:14:28.649Z,13.52
2023-05-15T23:17:21.025Z,13.25
2023-05-15T23:23:26.352Z,12.15
2023-05-15T23:26:19.079Z,11.93
2023-05-15T23:29:09.884Z,12.43
2023-05-15T23:32:03.412Z,12.65
2023-05-15T23:35:30.265Z,14.50
2023-05-15T23:38:16.471Z,14.15
2023-05-15T23:44:21.288Z,13.45
2023-05-15T23:47:08.873Z,13.15
2023-05-15T23:49:58.991Z,14.40
2023-05-15T23:52:45.124Z,12.90
2023-05-15T23:55:33.067Z,13.13
2023-05-15T23:58:19.138Z,17.67
